createdAt,value
2018-04-12T00:00:21.225Z,1000.79
2018-04-12T00:01:21.263Z,1000.77
2018-04-12T00:02:21.174Z,1000.76
2018-04-12T00:03:21.175Z,1000.73
2018-04-12T00:04:21.122Z,1000.70
2018-04-12T00:05:21.190Z,1000.70
2018-04-12T00:06:21.080Z,1000.71
2018-04-12T00:07:21.096Z,1000.67
2018-04-12T00:08:21.013Z,1000.67
2018-04-12T00:09:21.110Z,1000.64
2018-04-12T00:10:20.979Z,1000.65
2018-04-12T00:11:21.021Z,1000.64
2018-04-12T00:12:20.924Z,1000.60
2018-04-12T00:13:20.932Z,1000.66
2018-04-12T00:14:20.876Z,1000.64
2018-04-12T00:15:20.940Z,1000.61
2018-04-12T00:16:20.828Z,1000.61
2018-04-12T00:17:20.852Z,1000.61
2018-04-12T00:18:20.769Z,1000.62
2018-04-12T00:19:20.862Z,1000.57
2018-04-12T00:20:20.728Z,1000.60
2018-04-12T00:21:20.776Z,1000.59
2018-04-12T00:22:20.677Z,1000.63
2018-04-12T00:23:20.683Z,1000.58
2018-04-12T00:24:20.623Z,1000.59
2018-04-12T00:25:20.699Z,1000.60
2018-04-12T00:26:20.572Z,1000.58
2018-04-12T00:27:20.610Z,1000.57
2018-04-12T00:28:20.521Z,1000.54
2018-04-12T00:29:20.521Z,1000.49
2018-04-12T00:30:20.475Z,1000.47
2018-04-12T00:31:20.535Z,1000.48
2018-04-12T00:32:20.424Z,1000.52
2018-04-12T00:33:20.445Z,1000.51
2018-04-12T00:34:20.375Z,1000.56
2018-04-12T00:35:20.456Z,1000.58
2018-04-12T00:36:20.323Z,1000.53
2018-04-12T00:37:20.365Z,1000.56
2018-04-12T00:38:20.273Z,1000.55
2018-04-12T00:39:20.275Z,1000.54
2018-04-12T00:40:20.225Z,1000.53
2018-04-12T00:41:20.284Z,1000.52
2018-04-12T00:42:20.175Z,1000.51
2018-04-12T00:43:20.197Z,1000.50
2018-04-12T00:44:20.122Z,1000.51
2018-04-12T00:45:20.209Z,1000.46
2018-04-12T00:46:20.074Z,1000.46
2018-04-12T00:47:20.117Z,1000.43
2018-04-12T00:48:20.023Z,1000.42
2018-04-12T00:49:20.027Z,1000.36
2018-04-12T00:50:19.972Z,1000.38
2018-04-12T00:51:20.040Z,1000.37
2018-04-12T00:52:19.923Z,1000.34
2018-04-12T00:53:19.950Z,1000.36
2018-04-12T00:54:19.871Z,1000.32
2018-04-12T00:55:19.875Z,1000.32
2018-04-12T00:56:19.820Z,1000.31
2018-04-12T00:57:19.880Z,1000.29
2018-04-12T00:58:19.772Z,1000.29
2018-04-12T00:59:19.782Z,1000.31
2018-04-12T01:00:19.720Z,1000.25
2018-04-12T01:01:19.796Z,1000.29
2018-04-12T01:02:19.671Z,1000.30
2018-04-12T01:03:19.709Z,1000.26
2018-04-12T01:04:19.632Z,1000.28
2018-04-12T01:05:19.617Z,1000.25
2018-04-12T01:06:19.574Z,1000.23
2018-04-12T01:07:19.627Z,1000.26
2018-04-12T01:08:19.521Z,1000.17
2018-04-12T01:09:19.542Z,1000.19
2018-04-12T01:10:19.472Z,1000.15
2018-04-12T01:11:19.551Z,1000.19
2018-04-12T01:12:19.422Z,1000.15
2018-04-12T01:13:19.464Z,1000.20
2018-04-12T01:14:19.371Z,1000.15
2018-04-12T01:15:19.373Z,1000.18
2018-04-12T01:16:19.320Z,1000.17
2018-04-12T01:17:19.386Z,1000.16
2018-04-12T01:18:19.272Z,1000.14
2018-04-12T01:19:19.297Z,1000.18
2018-04-12T01:20:19.220Z,1000.15
2018-04-12T01:21:19.312Z,1000.13
2018-04-12T01:22:19.170Z,1000.13
2018-04-12T01:23:19.218Z,1000.11
2018-04-12T01:24:19.125Z,1000.13
2018-04-12T01:25:19.127Z,1000.09
2018-04-12T01:26:19.069Z,1000.06
2018-04-12T01:27:19.139Z,1000.07
2018-04-12T01:28:19.018Z,1000.05
2018-04-12T01:29:19.049Z,1000.05
2018-04-12T01:30:18.966Z,1000.03
2018-04-12T01:31:18.960Z,1000.01
2018-04-12T01:32:18.916Z,1000.03
2018-04-12T01:33:18.973Z,1000.02
2018-04-12T01:34:18.870Z,1000.03
2018-04-12T01:35:18.885Z,1000.00
2018-04-12T01:36:18.816Z,1000.00
2018-04-12T01:37:18.894Z,999.98
2018-04-12T01:38:18.772Z,999.96
2018-04-12T01:39:18.806Z,1000.00
2018-04-12T01:40:18.718Z,999.98
2018-04-12T01:41:18.716Z,999.94
2018-04-12T01:42:18.663Z,999.97
2018-04-12T01:43:18.730Z,999.96
2018-04-12T01:44:18.614Z,999.96
2018-04-12T01:45:18.642Z,999.94
2018-04-12T01:46:18.565Z,999.97
2018-04-12T01:47:18.653Z,999.96
2018-04-12T01:48:18.518Z,999.99
2018-04-12T01:49:18.565Z,999.93
2018-04-12T01:50:18.472Z,999.97
2018-04-12T01:51:18.483Z,1000.00
2018-04-12T01:52:18.412Z,999.97
2018-04-12T01:53:18.528Z,1000.01
2018-04-12T01:54:18.360Z,999.94
2018-04-12T01:55:18.404Z,999.89
2018-04-12T01:56:18.313Z,999.87
2018-04-12T01:57:19.343Z,999.83
2018-04-12T01:58:18.260Z,999.81
2018-04-12T01:59:18.320Z,999.82
2018-04-12T02:00:18.215Z,999.77
2018-04-12T02:01:18.227Z,999.80
2018-04-12T02:02:18.161Z,999.77
2018-04-12T02:03:18.241Z,999.78
2018-04-12T02:04:18.110Z,999.77
2018-04-12T02:05:18.147Z,999.79
2018-04-12T02:06:18.062Z,999.79
2018-04-12T02:07:18.058Z,999.79
2018-04-12T02:08:18.020Z,999.77
2018-04-12T02:09:18.070Z,999.80
2018-04-12T02:10:17.964Z,999.79
2018-04-12T02:11:17.981Z,999.78
2018-04-12T02:12:17.915Z,999.77
2018-04-12T02:13:17.993Z,999.79
2018-04-12T02:14:17.860Z,999.79
2018-04-12T02:15:17.905Z,999.78
2018-04-12T02:16:17.810Z,999.73
2018-04-12T02:17:17.813Z,999.76
2018-04-12T02:18:17.763Z,999.76
2018-04-12T02:19:17.826Z,999.77
2018-04-12T02:20:17.711Z,999.76
2018-04-12T02:21:17.744Z,999.75
2018-04-12T02:22:17.660Z,999.72
2018-04-12T02:23:17.751Z,999.71
2018-04-12T02:24:17.618Z,999.64
2018-04-12T02:25:17.665Z,999.67
2018-04-12T02:26:17.563Z,999.70
2018-04-12T02:27:17.569Z,999.65
2018-04-12T02:28:17.510Z,999.62
2018-04-12T02:29:17.589Z,999.60
2018-04-12T02:30:17.459Z,999.60
2018-04-12T02:31:17.495Z,999.62
2018-04-12T02:32:17.416Z,999.59
2018-04-12T02:33:17.402Z,999.62
2018-04-12T02:34:17.358Z,999.60
2018-04-12T02:35:17.415Z,999.59
2018-04-12T02:36:17.310Z,999.52
2018-04-12T02:37:17.325Z,999.57
2018-04-12T02:38:17.258Z,999.57
2018-04-12T02:39:17.341Z,999.59
2018-04-12T02:40:17.213Z,999.53
2018-04-12T02:41:17.249Z,999.51
2018-04-12T02:42:17.161Z,999.48
2018-04-12T02:43:17.160Z,999.49
2018-04-12T02:44:17.110Z,999.48
2018-04-12T02:45:17.172Z,999.42
2018-04-12T02:46:17.057Z,999.45
2018-04-12T02:48:51.703Z,999.35
2018-04-12T02:49:48.734Z,999.34
2018-04-12T02:51:41.603Z,999.30
2018-04-12T02:52:41.517Z,999.29
2018-04-12T02:54:34.457Z,999.28
2018-04-12T02:55:34.370Z,999.28
2018-04-12T02:57:27.817Z,999.20
2018-04-12T02:58:27.727Z,999.22
2018-04-12T03:00:20.671Z,999.13
2018-04-12T03:01:20.578Z,999.10
2018-04-12T03:03:13.521Z,999.14
2018-04-12T03:04:13.440Z,999.14
2018-04-12T03:06:06.371Z,999.17
2018-04-12T03:07:06.322Z,999.15
2018-04-12T03:08:59.223Z,999.09
2018-04-12T03:09:59.147Z,999.06
2018-04-12T03:11:52.074Z,999.05
2018-04-12T03:12:51.979Z,999.10
2018-04-12T03:14:44.923Z,999.05
2018-04-12T03:15:44.828Z,999.07
2018-04-12T03:17:37.773Z,999.03
2018-04-12T03:18:37.682Z,998.96
2018-04-12T03:20:30.624Z,998.94
2018-04-12T03:21:30.531Z,998.93
2018-04-12T03:23:23.512Z,998.94
2018-04-12T03:24:23.399Z,998.94
2018-04-12T03:26:16.325Z,998.94
2018-04-12T03:27:16.236Z,998.92
2018-04-12T03:29:09.179Z,998.96
2018-04-12T03:30:09.086Z,998.98
2018-04-12T03:32:02.028Z,998.94
2018-04-12T03:33:01.935Z,998.91
2018-04-12T03:34:54.877Z,998.89
2018-04-12T03:35:54.784Z,998.88
2018-04-12T03:37:47.731Z,998.86
2018-04-12T03:38:47.638Z,998.85
2018-04-12T03:40:40.581Z,998.83
2018-04-12T03:41:40.491Z,998.80
2018-04-12T03:43:33.428Z,998.76
2018-04-12T03:44:33.338Z,998.77
2018-04-12T03:46:26.280Z,998.75
2018-04-12T03:47:26.185Z,998.70
2018-04-12T03:49:19.185Z,998.72
2018-04-12T03:50:19.044Z,998.72
2018-04-12T03:52:11.981Z,998.72
2018-04-12T03:53:11.889Z,998.69
2018-04-12T03:55:04.836Z,998.68
2018-04-12T03:56:04.743Z,998.67
2018-04-12T03:57:57.684Z,998.63
2018-04-12T03:58:57.592Z,998.66
2018-04-12T04:00:50.538Z,998.67
2018-04-12T04:01:50.443Z,998.70
2018-04-12T04:03:43.386Z,998.65
2018-04-12T04:04:43.291Z,998.60
2018-04-12T04:06:36.238Z,998.63
2018-04-12T04:07:36.139Z,998.63
2018-04-12T04:09:29.096Z,998.61
2018-04-12T04:10:28.991Z,998.62
2018-04-12T04:12:21.936Z,998.62
2018-04-12T04:13:21.841Z,998.63
2018-04-12T04:15:14.788Z,998.60
2018-04-12T04:16:14.693Z,998.58
2018-04-12T04:18:07.640Z,998.58
2018-04-12T04:19:07.546Z,998.55
2018-04-12T04:21:00.493Z,998.49
2018-04-12T04:22:00.399Z,998.54
2018-04-12T04:23:53.279Z,998.49
2018-04-12T04:24:53.250Z,998.46
2018-04-12T04:26:46.197Z,998.45
2018-04-12T04:27:46.103Z,998.43
2018-04-12T04:29:40.065Z,998.44
2018-04-12T04:30:38.954Z,998.38
2018-04-12T04:32:31.894Z,998.37
2018-04-12T04:33:31.806Z,998.41
2018-04-12T04:35:24.741Z,998.48
2018-04-12T04:36:24.650Z,998.51
2018-04-12T04:38:17.593Z,998.57
2018-04-12T04:39:17.515Z,998.57
2018-04-12T04:41:10.446Z,998.56
2018-04-12T04:42:10.351Z,998.54
2018-04-12T04:44:03.297Z,998.48
2018-04-12T04:45:03.204Z,998.44
2018-04-12T04:46:56.149Z,998.35
2018-04-12T04:47:56.069Z,998.32
2018-04-12T04:49:48.940Z,998.34
2018-04-12T04:50:48.907Z,998.30
2018-04-12T04:52:42.060Z,998.34
2018-04-12T04:53:41.850Z,998.32
2018-04-12T04:55:35.016Z,998.32
2018-04-12T04:56:34.808Z,998.31
2018-04-12T04:58:27.964Z,998.32
2018-04-12T04:59:27.764Z,998.29
2018-04-12T05:01:20.823Z,998.35
2018-04-12T05:02:20.719Z,998.36
2018-04-12T05:04:13.773Z,998.36
2018-04-12T05:05:13.673Z,998.37
2018-04-12T05:07:06.728Z,998.32
2018-04-12T05:08:06.628Z,998.32
2018-04-12T05:09:59.683Z,998.30
2018-04-12T05:10:59.585Z,998.29
2018-04-12T05:12:52.660Z,998.29
2018-04-12T05:13:52.439Z,998.25
2018-04-12T05:15:45.394Z,998.23
2018-04-12T05:16:45.292Z,998.20
2018-04-12T05:18:39.270Z,998.20
2018-04-12T05:19:38.146Z,998.15
2018-04-12T05:21:31.098Z,998.17
2018-04-12T05:22:30.995Z,998.13
2018-04-12T05:23:31.083Z,998.15
2018-04-12T05:24:30.980Z,998.14
2018-04-12T05:25:30.994Z,998.16
2018-04-12T05:26:30.897Z,998.17
2018-04-12T05:27:31.008Z,998.15
2018-04-12T05:28:30.849Z,998.14
2018-04-12T05:29:30.920Z,998.17
2018-04-12T05:30:30.797Z,998.14
2018-04-12T05:31:30.840Z,998.18
2018-04-12T05:32:30.746Z,998.16
2018-04-12T05:33:30.853Z,998.18
2018-04-12T05:34:30.694Z,998.17
2018-04-12T05:35:30.757Z,998.18
2018-04-12T05:36:30.648Z,998.15
2018-04-12T05:37:30.671Z,998.17
2018-04-12T05:38:30.602Z,998.18
2018-04-12T05:39:30.686Z,998.17
2018-04-12T05:40:30.546Z,998.19
2018-04-12T05:41:30.596Z,998.21
2018-04-12T05:42:30.495Z,998.18
2018-04-12T05:43:30.608Z,998.19
2018-04-12T05:44:30.447Z,998.21
2018-04-12T05:45:30.526Z,998.24
2018-04-12T05:46:30.402Z,998.22
2018-04-12T05:47:30.432Z,998.24
2018-04-12T05:48:30.344Z,998.22
2018-04-12T05:49:30.445Z,998.23
2018-04-12T05:50:30.296Z,998.24
2018-04-12T05:51:30.364Z,998.27
2018-04-12T05:52:30.248Z,998.26
2018-04-12T05:53:30.372Z,998.23
2018-04-12T05:54:30.195Z,998.23
2018-04-12T05:55:30.286Z,998.25
2018-04-12T05:56:30.145Z,998.22
2018-04-12T05:57:30.195Z,998.18
2018-04-12T05:58:30.099Z,998.20
2018-04-12T05:59:30.207Z,998.20
2018-04-12T06:00:30.043Z,998.21
2018-04-12T06:01:30.123Z,998.21
2018-04-12T06:02:29.993Z,998.20
2018-04-12T06:03:30.134Z,998.17
2018-04-12T06:04:29.943Z,998.16
2018-04-12T06:05:30.044Z,998.16
2018-04-12T06:06:29.893Z,998.12
2018-04-12T06:07:29.963Z,998.12
2018-04-12T06:08:29.846Z,998.12
2018-04-12T06:09:29.971Z,998.16
2018-04-12T06:10:29.794Z,998.14
2018-04-12T06:11:29.883Z,998.16
2018-04-12T06:12:29.746Z,998.13
2018-04-12T06:13:29.794Z,998.08
2018-04-12T06:14:29.697Z,998.10
2018-04-12T06:15:29.812Z,998.04
2018-04-12T06:16:29.646Z,998.00
2018-04-12T06:17:29.720Z,997.96
2018-04-12T06:18:29.596Z,997.97
2018-04-12T06:19:29.734Z,997.94
2018-04-12T06:20:29.585Z,997.94
2018-04-12T06:21:29.646Z,997.89
2018-04-12T06:22:29.498Z,997.89
2018-04-12T06:23:29.660Z,997.90
2018-04-12T06:24:29.449Z,997.90
2018-04-12T06:25:29.572Z,997.89
2018-04-12T06:26:29.404Z,997.87
2018-04-12T06:27:29.484Z,997.89
2018-04-12T06:28:29.374Z,997.90
2018-04-12T06:29:29.498Z,997.88
2018-04-12T06:30:29.302Z,997.93
2018-04-12T06:31:29.407Z,997.91
2018-04-12T06:32:29.260Z,997.93
2018-04-12T06:33:29.327Z,997.89
2018-04-12T06:34:29.204Z,997.89
2018-04-12T06:35:29.335Z,997.93
2018-04-12T06:36:29.154Z,997.93
2018-04-12T06:37:29.133Z,997.91
2018-04-12T06:38:29.106Z,997.94
2018-04-12T06:39:29.264Z,997.96
2018-04-12T06:40:29.056Z,997.94
2018-04-12T06:41:29.172Z,997.94
2018-04-12T06:42:29.024Z,997.91
2018-04-12T06:43:28.983Z,997.93
2018-04-12T06:44:29.090Z,997.89
2018-04-12T06:45:28.933Z,997.91
2018-04-12T06:46:29.106Z,997.91
2018-04-12T06:47:28.922Z,997.93
2018-04-12T06:48:29.015Z,997.88
2018-04-12T06:49:28.840Z,997.88
2018-04-12T06:50:28.928Z,997.84
2018-04-12T06:51:28.784Z,997.87
2018-04-12T06:52:28.940Z,997.86
2018-04-12T06:53:28.737Z,997.91
2018-04-12T06:54:28.853Z,997.88
2018-04-12T06:55:28.688Z,997.89
2018-04-12T06:56:28.869Z,997.94
2018-04-12T06:57:28.643Z,997.91
2018-04-12T06:58:28.779Z,997.93
2018-04-12T06:59:28.603Z,998.02
2018-04-12T07:00:28.690Z,997.98
2018-04-12T07:01:28.541Z,997.96
2018-04-12T07:02:28.701Z,997.95
2018-04-12T07:03:28.496Z,998.00
2018-04-12T07:04:28.616Z,997.96
2018-04-12T07:05:28.445Z,997.92
2018-04-12T07:06:28.630Z,997.93
2018-04-12T07:07:28.411Z,997.96
2018-04-12T07:08:28.540Z,997.98
2018-04-12T07:09:28.348Z,997.97
2018-04-12T07:10:28.451Z,997.99
2018-04-12T07:11:28.298Z,997.97
2018-04-12T07:12:28.466Z,997.98
2018-04-12T07:13:28.254Z,997.96
2018-04-12T07:14:28.377Z,997.97
2018-04-12T07:15:28.199Z,997.94
2018-04-12T07:16:28.177Z,997.90
2018-04-12T07:17:28.153Z,997.87
2018-04-12T07:18:28.200Z,997.84
2018-04-12T07:19:28.110Z,997.82
2018-04-12T07:20:28.110Z,997.82
2018-04-12T07:21:28.059Z,997.80
2018-04-12T07:22:28.126Z,997.79
2018-04-12T07:23:28.009Z,997.79
2018-04-12T07:24:28.036Z,997.77
2018-04-12T07:25:27.961Z,997.79
2018-04-12T07:26:28.051Z,997.73
2018-04-12T07:27:27.918Z,997.75
2018-04-12T07:28:27.963Z,997.73
2018-04-12T07:29:27.867Z,997.79
2018-04-12T07:30:27.874Z,997.81
2018-04-12T07:31:27.817Z,997.86
2018-04-12T07:32:27.894Z,997.95
2018-04-12T07:33:27.791Z,998.04
2018-04-12T07:34:27.800Z,998.10
2018-04-12T07:35:27.720Z,998.06
2018-04-12T07:36:27.812Z,998.11
2018-04-12T07:37:27.677Z,998.14
2018-04-12T07:38:27.723Z,998.10
2018-04-12T07:39:27.626Z,998.14
2018-04-12T07:40:27.743Z,998.13
2018-04-12T07:41:27.580Z,998.10
2018-04-12T07:42:27.652Z,998.11
2018-04-12T07:43:27.533Z,998.11
2018-04-12T07:44:27.559Z,998.11
2018-04-12T07:45:27.484Z,998.06
2018-04-12T07:46:27.575Z,998.12
2018-04-12T07:47:27.438Z,998.14
2018-04-12T07:48:27.486Z,998.16
2018-04-12T07:49:27.389Z,998.13
2018-04-12T07:50:27.501Z,998.14
2018-04-12T07:51:27.344Z,998.17
2018-04-12T07:52:27.414Z,998.18
2018-04-12T07:53:27.297Z,998.21
2018-04-12T07:54:27.325Z,998.24
2018-04-12T07:55:27.252Z,998.21
2018-04-12T07:56:27.338Z,998.19
2018-04-12T07:59:19.859Z,998.16
2018-04-12T07:59:58.901Z,998.13
2018-04-12T08:01:51.872Z,998.23
2018-04-12T08:02:51.777Z,998.21
2018-04-12T08:04:44.830Z,998.20
2018-04-12T08:05:44.735Z,998.24
2018-04-12T08:07:37.785Z,998.29
2018-04-12T08:08:37.684Z,998.36
2018-04-12T08:10:30.740Z,998.22
2018-04-12T08:11:30.640Z,998.22
2018-04-12T08:13:23.797Z,998.22
2018-04-12T08:14:23.599Z,998.16
2018-04-12T08:16:16.794Z,998.12
2018-04-12T08:17:16.554Z,998.12
2018-04-12T08:19:09.552Z,998.14
2018-04-12T08:20:09.508Z,998.15
2018-04-12T08:22:02.667Z,998.11
2018-04-12T08:23:02.462Z,998.08
2018-04-12T08:24:55.619Z,998.06
2018-04-12T08:25:55.418Z,997.99
2018-04-12T08:27:48.574Z,997.95
2018-04-12T08:28:48.381Z,997.92
2018-04-12T08:30:41.532Z,997.89
2018-04-12T08:31:41.340Z,997.87
2018-04-12T08:33:34.502Z,997.83
2018-04-12T08:34:34.308Z,997.87
2018-04-12T08:36:27.441Z,997.86
2018-04-12T08:37:27.244Z,997.82
2018-04-12T08:39:20.396Z,997.75
2018-04-12T08:40:20.199Z,997.69
2018-04-12T08:42:13.352Z,997.61
2018-04-12T08:43:13.159Z,997.61
2018-04-12T08:45:06.308Z,997.59
2018-04-12T08:46:06.107Z,997.54
2018-04-12T08:47:59.262Z,997.42
2018-04-12T08:48:59.062Z,997.45
2018-04-12T08:50:52.230Z,997.46
2018-04-12T08:51:52.019Z,997.52
2018-04-12T08:53:45.172Z,997.59
2018-04-12T08:54:44.976Z,997.58
2018-04-12T08:56:38.127Z,997.67
2018-04-12T08:57:37.939Z,997.74
2018-04-12T08:59:31.083Z,997.62
2018-04-12T09:00:30.884Z,997.64
2018-04-12T09:02:24.039Z,997.76
2018-04-12T09:03:23.842Z,997.71
2018-04-12T09:05:16.996Z,997.59
2018-04-12T09:06:16.798Z,997.61
2018-04-12T09:08:09.949Z,997.54
2018-04-12T09:09:09.756Z,997.52
2018-04-12T09:11:02.904Z,997.47
2018-04-12T09:12:02.884Z,997.42
2018-04-12T09:13:55.861Z,997.34
2018-04-12T09:14:55.664Z,997.22
2018-04-12T09:16:48.817Z,997.14
2018-04-12T09:17:48.618Z,997.12
2018-04-12T09:19:41.769Z,996.98
2018-04-12T09:20:41.570Z,996.92
2018-04-12T09:22:34.730Z,996.80
2018-04-12T09:23:34.535Z,996.80
2018-04-12T09:25:27.578Z,996.79
2018-04-12T09:26:27.385Z,996.78
2018-04-12T09:28:20.533Z,996.73
2018-04-12T09:29:20.339Z,996.70
2018-04-12T09:31:13.288Z,996.74
2018-04-12T09:32:13.194Z,996.77
2018-04-12T09:34:06.243Z,996.78
2018-04-12T09:35:06.148Z,996.82
2018-04-12T09:36:59.092Z,996.78
2018-04-12T09:37:59.003Z,996.71
2018-04-12T09:39:51.955Z,996.71
2018-04-12T09:40:51.859Z,996.67
2018-04-12T09:42:44.802Z,996.77
2018-04-12T09:43:44.709Z,996.89
2018-04-12T09:45:37.664Z,996.95
2018-04-12T09:46:37.559Z,996.95
2018-04-12T09:48:30.507Z,996.86
2018-04-12T09:49:30.436Z,996.80
2018-04-12T09:51:23.358Z,996.84
2018-04-12T09:52:23.271Z,996.89
2018-04-12T09:54:16.211Z,996.84
2018-04-12T09:55:16.118Z,996.87
2018-04-12T09:57:09.065Z,996.88
2018-04-12T09:58:08.973Z,996.92
2018-04-12T10:00:01.956Z,996.96
2018-04-12T10:01:01.825Z,996.96
2018-04-12T10:02:54.772Z,996.86
2018-04-12T10:03:54.677Z,996.91
2018-04-12T10:05:47.624Z,996.87
2018-04-12T10:06:47.531Z,996.87
2018-04-12T10:08:40.475Z,996.85
2018-04-12T10:09:40.386Z,996.81
2018-04-12T10:11:33.328Z,996.82
2018-04-12T10:12:33.236Z,996.84
2018-04-12T10:14:26.181Z,996.92
2018-04-12T10:15:26.094Z,996.93
2018-04-12T10:17:19.102Z,997.00
2018-04-12T10:18:18.941Z,997.04
2018-04-12T10:20:11.887Z,997.00
2018-04-12T10:21:11.796Z,997.04
2018-04-12T10:23:04.740Z,997.06
2018-04-12T10:24:04.651Z,997.05
2018-04-12T10:25:57.592Z,996.98
2018-04-12T10:26:57.504Z,997.00
2018-04-12T10:28:50.451Z,996.98
2018-04-12T10:29:50.355Z,996.97
2018-04-12T10:31:43.302Z,997.03
2018-04-12T10:32:43.212Z,997.02
2018-04-12T10:34:36.151Z,997.09
2018-04-12T10:35:36.061Z,997.11
2018-04-12T10:37:29.903Z,997.07
2018-04-12T10:38:28.920Z,997.06
2018-04-12T10:40:21.857Z,997.08
2018-04-12T10:41:21.770Z,997.10
2018-04-12T10:43:14.711Z,997.11
2018-04-12T10:44:18.233Z,997.16
2018-04-12T10:46:07.580Z,997.16
2018-04-12T10:47:07.478Z,997.14
2018-04-12T10:49:00.418Z,997.13
2018-04-12T10:50:00.333Z,997.11
2018-04-12T10:51:53.385Z,997.10
2018-04-12T10:52:53.284Z,997.08
2018-04-12T10:54:46.324Z,997.09
2018-04-12T10:55:46.240Z,997.08
2018-04-12T10:57:39.180Z,997.13
2018-04-12T10:58:39.093Z,997.16
2018-04-12T11:00:32.030Z,997.17
2018-04-12T11:01:31.944Z,997.16
2018-04-12T11:02:32.023Z,997.20
2018-04-12T11:03:31.930Z,997.26
2018-04-12T11:04:31.933Z,997.23
2018-04-12T11:05:31.870Z,997.27
2018-04-12T11:06:31.953Z,997.28
2018-04-12T11:07:31.832Z,997.27
2018-04-12T11:08:31.850Z,997.24
2018-04-12T11:09:31.796Z,997.23
2018-04-12T11:10:31.871Z,997.29
2018-04-12T11:11:31.764Z,997.28
2018-04-12T11:12:31.786Z,997.34
2018-04-12T11:13:31.726Z,997.33
2018-04-12T11:14:31.804Z,997.27
2018-04-12T11:15:31.687Z,997.38
2018-04-12T11:16:31.711Z,997.37
2018-04-12T11:17:31.656Z,997.33
2018-04-12T11:18:32.131Z,997.28
2018-04-12T11:19:31.615Z,997.29
2018-04-12T11:20:31.636Z,997.30
2018-04-12T11:21:31.578Z,997.33
2018-04-12T11:22:31.648Z,997.34
2018-04-12T11:23:31.551Z,997.36
2018-04-12T11:24:31.562Z,997.36
2018-04-12T11:25:31.510Z,997.34
2018-04-12T11:26:31.578Z,997.37
2018-04-12T11:27:31.474Z,997.42
2018-04-12T11:28:31.486Z,997.41
2018-04-12T11:29:31.438Z,997.40
2018-04-12T11:30:31.502Z,997.38
2018-04-12T11:31:31.405Z,997.41
2018-04-12T11:32:31.419Z,997.38
2018-04-12T11:33:31.370Z,997.39
2018-04-12T11:34:31.435Z,997.33
2018-04-12T11:35:31.338Z,997.36
2018-04-12T11:36:31.336Z,997.32
2018-04-12T11:37:31.301Z,997.28
2018-04-12T11:38:31.350Z,997.29
2018-04-12T11:39:31.266Z,997.28
2018-04-12T11:40:31.273Z,997.28
2018-04-12T11:41:31.239Z,997.24
2018-04-12T11:42:31.276Z,997.25
2018-04-12T11:43:31.201Z,997.21
2018-04-12T11:44:31.290Z,997.20
2018-04-12T11:45:31.197Z,997.23
2018-04-12T11:46:31.201Z,997.23
2018-04-12T11:47:31.132Z,997.21
2018-04-12T11:48:31.216Z,997.19
2018-04-12T11:49:31.098Z,997.22
2018-04-12T11:50:31.127Z,997.17
2018-04-12T11:51:31.102Z,997.20
2018-04-12T11:52:31.141Z,997.14
2018-04-12T11:53:31.036Z,997.10
2018-04-12T11:54:31.053Z,997.07
2018-04-12T11:55:31.025Z,997.05
2018-04-12T11:56:31.104Z,997.08
2018-04-12T11:57:30.969Z,997.09
2018-04-12T11:58:30.978Z,997.06
2018-04-12T11:59:30.936Z,997.07
2018-04-12T12:00:30.992Z,997.03
2018-04-12T12:01:30.904Z,997.00
2018-04-12T12:02:30.905Z,997.05
2018-04-12T12:03:30.869Z,996.97
2018-04-12T12:04:30.910Z,996.95
2018-04-12T12:05:30.836Z,996.98
2018-04-12T12:06:30.829Z,996.98
2018-04-12T12:07:30.803Z,996.97
2018-04-12T12:08:30.843Z,996.97
2018-04-12T12:09:30.771Z,996.96
2018-04-12T12:10:30.860Z,996.97
2018-04-12T12:11:30.735Z,996.97
2018-04-12T12:12:30.769Z,996.99
2018-04-12T12:13:30.701Z,996.96
2018-04-12T12:14:30.783Z,996.95
2018-04-12T12:15:30.669Z,996.93
2018-04-12T12:16:30.694Z,996.92
2018-04-12T12:17:30.634Z,996.91
2018-04-12T12:18:30.710Z,996.90
2018-04-12T12:19:30.604Z,996.94
2018-04-12T12:20:30.620Z,996.93
2018-04-12T12:21:30.569Z,996.93
2018-04-12T12:22:30.636Z,996.91
2018-04-12T12:23:30.538Z,996.90
2018-04-12T12:24:30.547Z,996.94
2018-04-12T12:25:30.507Z,996.94
2018-04-12T12:26:30.561Z,996.96
2018-04-12T12:27:30.473Z,996.93
2018-04-12T12:28:30.492Z,996.90
2018-04-12T12:29:30.445Z,996.92
2018-04-12T12:30:30.493Z,996.93
2018-04-12T12:31:30.412Z,996.93
2018-04-12T12:32:30.506Z,996.89
2018-04-12T12:33:30.373Z,996.86
2018-04-12T12:34:30.418Z,996.87
2018-04-12T12:35:30.343Z,996.85
2018-04-12T12:36:30.431Z,996.87
2018-04-12T12:37:30.310Z,996.82
2018-04-12T12:38:30.341Z,996.79
2018-04-12T12:39:30.279Z,996.79
2018-04-12T12:40:30.357Z,996.79
2018-04-12T12:41:30.250Z,996.80
2018-04-12T12:42:30.267Z,996.82
2018-04-12T12:43:30.218Z,996.87
2018-04-12T12:44:30.282Z,996.85
2018-04-12T12:45:30.189Z,996.86
2018-04-12T12:46:30.192Z,996.85
2018-04-12T12:47:30.156Z,996.88
2018-04-12T12:48:30.207Z,996.86
2018-04-12T12:49:30.122Z,996.88
2018-04-12T12:50:30.222Z,996.87
2018-04-12T12:51:30.094Z,996.87
2018-04-12T12:52:30.134Z,996.83
2018-04-12T12:53:30.064Z,996.82
2018-04-12T12:54:30.147Z,996.80
2018-04-12T12:55:30.044Z,996.76
2018-04-12T12:56:30.058Z,996.74
2018-04-12T12:57:30.004Z,996.75
2018-04-12T12:58:30.073Z,996.72
2018-04-12T12:59:29.973Z,996.65
2018-04-12T13:00:29.984Z,996.70
2018-04-12T13:01:29.945Z,996.73
2018-04-12T13:02:29.999Z,996.72
2018-04-12T13:03:29.943Z,996.74
2018-04-12T13:04:30.042Z,996.69
2018-04-12T13:05:29.884Z,996.67
2018-04-12T13:06:29.933Z,996.62
2018-04-12T13:07:29.857Z,996.66
2018-04-12T13:08:29.935Z,996.64
2018-04-12T13:09:29.839Z,996.56
2018-04-12T13:10:29.843Z,996.60
2018-04-12T13:11:29.805Z,996.63
2018-04-12T13:12:29.862Z,996.61
2018-04-12T13:13:29.777Z,996.62
2018-04-12T13:14:29.774Z,996.58
2018-04-12T13:15:29.738Z,996.59
2018-04-12T13:16:29.902Z,996.53
2018-04-12T13:17:29.779Z,996.61
2018-04-12T13:18:29.800Z,996.55
2018-04-12T13:19:29.685Z,996.58
2018-04-12T13:20:29.814Z,996.55
2018-04-12T13:21:29.660Z,996.53
2018-04-12T13:22:29.828Z,996.53
2018-04-12T13:23:29.629Z,996.52
2018-04-12T13:24:29.742Z,996.54
2018-04-12T13:25:29.599Z,996.55
2018-04-12T13:26:29.756Z,996.55
2018-04-12T13:27:29.577Z,996.52
2018-04-12T13:28:29.667Z,996.51
2018-04-12T13:29:29.551Z,996.51
2018-04-12T13:30:29.681Z,996.51
2018-04-12T13:31:29.522Z,996.53
2018-04-12T13:32:29.695Z,996.56
2018-04-12T13:33:29.498Z,996.58
2018-04-12T13:34:30.529Z,996.54
2018-04-12T13:35:29.467Z,996.51
2018-04-12T13:36:29.624Z,996.50
2018-04-12T13:37:29.446Z,996.52
2018-04-12T13:38:29.639Z,996.47
2018-04-12T13:39:29.414Z,996.46
2018-04-12T13:40:29.550Z,996.46
2018-04-12T13:41:29.386Z,996.40
2018-04-12T13:42:29.567Z,996.37
2018-04-12T13:43:29.365Z,996.37
2018-04-12T13:44:29.483Z,996.36
2018-04-12T13:45:29.333Z,996.40
2018-04-12T13:46:29.494Z,996.46
2018-04-12T13:47:29.311Z,996.44
2018-04-12T13:48:29.503Z,996.51
2018-04-12T13:49:29.282Z,996.48
2018-04-12T13:50:29.266Z,996.54
2018-04-12T13:51:29.249Z,996.50
2018-04-12T13:52:29.329Z,996.45
2018-04-12T13:53:29.226Z,996.44
2018-04-12T13:54:29.232Z,996.45
2018-04-12T13:55:29.206Z,996.48
2018-04-12T13:56:29.249Z,996.55
2018-04-12T13:57:29.174Z,996.61
2018-04-12T13:58:29.260Z,996.64
2018-04-12T13:59:29.149Z,996.64
2018-04-12T14:00:29.168Z,996.61
2018-04-12T14:01:29.125Z,996.58
2018-04-12T14:02:29.179Z,996.55
2018-04-12T14:03:29.095Z,996.52
2018-04-12T14:04:29.190Z,996.53
2018-04-12T14:05:29.068Z,996.52
2018-04-12T14:06:29.102Z,996.51
2018-04-12T14:07:29.045Z,996.48
2018-04-12T14:08:29.113Z,996.48
2018-04-12T14:09:29.018Z,996.51
2018-04-12T14:10:29.024Z,996.51